KSRQKRSW

Guest
Details From KSRQ - Sarasota Bradenton Intl
To KRSW - Southwest Florida Intl
Flight Number -
Tags generated
Created
Modified
Stats Distance 67 nm / 124 km
Max Altitude 4,300 ft / 1,311 m
Waypoints 3
Social Downloads 0
Likes 0
Share VATSIM

Download

Looking for another format? Having issues loading an existing format? Contact us
Advertisement - Login to hide

Notes

Basic altitude profile: - Ascent Rate: 2500ft/min - Ascent Speed: 250kts - Cruise Altitude: 35000ft - Cruise Speed: 420kts - Descent Rate: 1500ft/min - Descent Speed: 250kts Options: - Use NATs: no - Use PACOTS: no - Use low airways: yes - Use high airways: no

Route

KSRQ ERRIN KRSW

ID Type Via Altitude Latitude Longitude Leg Dist Tot Dist Heading (true) Name
O KSRQ APT - 0 ft / 0 m 27.39544˚ -82.55404˚ - 0 nm - Sarasota Bradenton Intl
ERRIN FIX - 4,300 ft / 1,311 m 26.80795˚ -81.98233˚ 46 nm 46 nm 139° / 139° -
O KRSW APT - 0 ft / 0 m 26.53616˚ -81.75515˚ 20 nm 67 nm 143° / 143° Southwest Florida Intl

Altitude Profile

Advertisement - Login to hide

KSRQ

Details ICAO KSRQ (SRQ)
Name Sarasota Bradenton Intl
Region United States
Timezone America/New_York (UTC-5.0)
Stats Elevation 31 ft / 9 m (AMSL)
Location 27.395443° -82.554035°
Runways 2
Magnetic Variation 5.458° W

METAR

KSRQ 112253Z AUTO 00000KT 10SM CLR 13/08 A3018 RMK AO2 SLP219 T01330078

Decode

TAF

KSRQ 111745Z 1118/1218 03006KT P6SM SKC FM111900 32006KT P6SM FEW250 FM120100 VRB03KT P6SM SKC FM121400 27011G18KT P6SM SCT030 BKN250

Decode

Departure Runways

ID Width Length Bearing (true) Bearing (mag) Surface Threshold Offset Overrun Length
04 150 ft / 46 m 5,019 ft / 1,530 m 37.96° 43.42° Asphalt 0 ft / 0 m 0 ft / 0 m
14 150 ft / 46 m 9,510 ft / 2,899 m 134.53° 139.99° Asphalt 1,350 ft / 411 m 0 ft / 0 m
22 150 ft / 46 m 5,019 ft / 1,530 m 217.96° 223.42° Asphalt 0 ft / 0 m 0 ft / 0 m
32 150 ft / 46 m 9,510 ft / 2,899 m 314.54° 320.00° Asphalt 1,147 ft / 350 m 0 ft / 0 m

KRSW

Details ICAO KRSW (RSW)
Name Southwest Florida Intl
Region United States
Timezone America/New_York (UTC-5.0)
Stats Elevation 30 ft / 9 m (AMSL)
Location 26.536162° -81.755152°
Runways 1
Magnetic Variation 5.839° W

METAR

KRSW 112253Z AUTO 00000KT 10SM CLR 15/06 A3017 RMK AO2 SLP215 T01500056

Decode

TAF

KRSW 111745Z 1118/1218 36007KT P6SM SKC FM112000 32006KT P6SM FEW250 FM120100 VRB04KT P6SM SKC FM121600 26010KT P6SM FEW030 SCT250

Decode

Destination Runways

ID Width Length Bearing (true) Bearing (mag) Surface Threshold Offset Overrun Length
06 150 ft / 46 m 12,004 ft / 3,659 m 53.96° 59.80° Asphalt 0 ft / 0 m 0 ft / 0 m
24 150 ft / 46 m 12,004 ft / 3,659 m 233.97° 239.81° Asphalt 0 ft / 0 m 0 ft / 0 m

Approach Navaids

Runway Type Ident Frequency Range Bearing (true) Bearing (mag) Slope Elevation
06 Localiser IRSW 111.50 MHz 18 nm / 33 km 53.97° 59.81° - 28 ft / 9 m (AMSL)
06 Glidescope IRSW 111.50 MHz 10 nm / 19 km 53.96° 59.80° 3.00° 27 ft / 8 m (AMSL)

Popular Alternatives